EDMA/AGB METAR and TAF weather

Enter ICAO airport designator
Station Type Date Time Source
EDMA METAR 2021/09/24 02:50 UTC NOAA

EDMA 240250Z AUTO VRB02KT 9999 NCD 09/08 Q1019


Station Type Date Time Source
EDMA Decoded METAR 2021/09/24 02:50 UTC NOAA

Augsburg, Germany (EDMA) 48-26N 010-56E 463M
Sep 23, 2021 - 10:50 PM EDT / 2021.09.24 0250 UTC
Wind: Variable at 2 MPH (2 KT):0
Visibility: greater than 7 mile(s):0
Temperature: 48 F (9 C)
Dew Point: 46 F (8 C)
Relative Humidity: 93%
Pressure (altimeter): 30.09 in. Hg (1019 hPa)
ob: EDMA 240250Z AUTO VRB02KT 9999 NCD 09/08 Q1019
cycle: 3

Station Type Date Time Source
EDMA TAF 2010/02/22 13:50 UTC NOAA

METAR EDMA 221350Z 23006KT CAVOK 10/02 Q0996

Example: see airport list